createdAt,value
2023-04-04T00:00:24.581Z,8.430
2023-04-04T00:01:26.048Z,8.378
2023-04-04T00:02:23.470Z,8.362
2023-04-04T00:03:23.464Z,8.333
2023-04-04T00:04:23.450Z,8.345
2023-04-04T00:05:23.336Z,8.315
2023-04-04T00:06:23.234Z,8.310
2023-04-04T00:07:23.353Z,8.284
2023-04-04T00:08:23.060Z,8.234
2023-04-04T00:09:23.390Z,8.225
2023-04-04T00:10:23.322Z,8.215
2023-04-04T00:11:23.382Z,8.189
2023-04-04T00:12:24.757Z,8.184
2023-04-04T00:13:22.761Z,8.154
2023-04-04T00:14:23.112Z,8.149
2023-04-04T00:15:23.838Z,8.120
2023-04-04T00:16:23.124Z,8.095
2023-04-04T00:17:23.310Z,8.064
2023-04-04T00:18:22.872Z,8.050
2023-04-04T00:19:22.755Z,7.994
2023-04-04T00:20:23.180Z,7.972
2023-04-04T00:21:23.250Z,7.985
2023-04-04T00:22:23.078Z,7.969
2023-04-04T00:23:22.893Z,7.912
2023-04-04T00:24:22.769Z,7.902
2023-04-04T00:25:22.943Z,7.920
2023-04-04T00:26:22.650Z,7.880
2023-04-04T00:27:23.150Z,7.874
2023-04-04T00:28:23.577Z,7.883
2023-04-04T00:29:23.222Z,7.833
2023-04-04T00:30:22.980Z,7.815
2023-04-04T00:31:22.959Z,7.816
2023-04-04T00:32:23.033Z,7.795
2023-04-04T00:33:23.313Z,7.769
2023-04-04T00:34:23.044Z,7.744
2023-04-04T00:35:23.595Z,7.724
2023-04-04T00:36:23.915Z,7.704
2023-04-04T00:37:23.085Z,7.686
2023-04-04T00:38:22.545Z,7.678
2023-04-04T00:39:23.386Z,7.643
2023-04-04T00:40:22.901Z,7.643
2023-04-04T00:41:22.477Z,7.655
2023-04-04T00:42:23.071Z,7.637
2023-04-04T00:43:22.971Z,7.649
2023-04-04T00:44:22.991Z,7.619
2023-04-04T00:45:23.023Z,7.605
2023-04-04T00:46:23.193Z,7.579
2023-04-04T00:47:23.587Z,7.574
2023-04-04T00:48:23.088Z,7.565
2023-04-04T00:49:23.151Z,7.534
2023-04-04T00:50:22.982Z,7.514
2023-04-04T00:51:22.888Z,7.510
2023-04-04T00:52:22.979Z,7.474
2023-04-04T00:53:23.210Z,7.494
2023-04-04T00:54:22.464Z,7.489
2023-04-04T00:55:23.307Z,7.485
2023-04-04T00:56:23.261Z,7.454
2023-04-04T00:57:22.659Z,7.440
2023-04-04T00:58:23.202Z,7.420
2023-04-04T00:59:23.156Z,7.383
2023-04-04T01:00:24.057Z,7.379
2023-04-04T01:01:23.427Z,7.383
2023-04-04T01:02:23.469Z,7.400
2023-04-04T01:03:22.993Z,7.344
2023-04-04T01:04:23.122Z,7.289
2023-04-04T01:05:22.965Z,7.260
2023-04-04T01:06:22.750Z,7.25
2023-04-04T01:07:22.972Z,7.239
2023-04-04T01:08:23.180Z,7.224
2023-04-04T01:09:23.320Z,7.199
2023-04-04T01:10:23.553Z,7.189
2023-04-04T01:11:23.687Z,7.149
2023-04-04T01:12:23.480Z,7.110
2023-04-04T01:13:23.291Z,7.105
2023-04-04T01:14:23.321Z,7.090
2023-04-04T01:15:24.013Z,7.105
2023-04-04T01:16:23.054Z,7.094
2023-04-04T01:17:23.337Z,7.074
2023-04-04T01:18:23.074Z,7.065
2023-04-04T01:19:22.873Z,7.065
2023-04-04T01:20:22.878Z,7.054
2023-04-04T01:21:23.205Z,7.054
2023-04-04T01:22:22.790Z,7.065
2023-04-04T01:23:22.779Z,7.054
2023-04-04T01:24:23.080Z,7.025
2023-04-04T01:25:23.349Z,6.994
2023-04-04T01:26:23.360Z,7
2023-04-04T01:27:23.338Z,6.974
2023-04-04T01:28:22.750Z,6.969
2023-04-04T01:29:23.392Z,6.965
2023-04-04T01:30:23.484Z,6.934
2023-04-04T01:31:23.631Z,6.949
2023-04-04T01:32:28.412Z,6.945
2023-04-04T01:33:22.945Z,6.940
2023-04-04T01:34:22.774Z,6.940
2023-04-04T01:35:23.353Z,6.914
2023-04-04T01:36:30.867Z,6.905
2023-04-04T01:37:23.496Z,6.914
2023-04-04T01:38:22.893Z,6.900
2023-04-04T01:39:22.825Z,6.920
2023-04-04T01:40:23.066Z,6.914
2023-04-04T01:41:22.823Z,6.905
2023-04-04T01:42:23.597Z,6.873
2023-04-04T01:43:23.253Z,6.882
2023-04-04T01:44:22.751Z,6.885
2023-04-04T01:45:23.383Z,6.866
2023-04-04T01:46:22.984Z,6.847
2023-04-04T01:47:22.831Z,6.789
2023-04-04T01:48:23.490Z,6.755
2023-04-04T01:49:23.067Z,6.735
2023-04-04T01:50:23.224Z,6.692
2023-04-04T01:51:23.188Z,6.665
2023-04-04T01:52:23.208Z,6.620
2023-04-04T01:53:23.054Z,6.610
2023-04-04T01:54:23.477Z,6.579
2023-04-04T01:55:23.057Z,6.545
2023-04-04T01:56:23.479Z,6.510
2023-04-04T01:57:23.017Z,6.525
2023-04-04T01:58:22.727Z,6.519
2023-04-04T01:59:23.279Z,6.505
2023-04-04T02:00:23.866Z,6.489
2023-04-04T02:01:23.644Z,6.485
2023-04-04T02:02:23.686Z,6.460
2023-04-04T02:03:23.378Z,6.449
2023-04-04T02:04:23.093Z,6.429
2023-04-04T02:05:23.364Z,6.434
2023-04-04T02:06:22.903Z,6.409
2023-04-04T02:07:23.572Z,6.385
2023-04-04T02:08:23.368Z,6.379
2023-04-04T02:09:23.146Z,6.379
2023-04-04T02:10:23.383Z,6.400
2023-04-04T02:11:22.966Z,6.420
2023-04-04T02:12:23.358Z,6.440
2023-04-04T02:13:23.245Z,6.425
2023-04-04T02:14:23.316Z,6.429
2023-04-04T02:15:23.293Z,6.425
2023-04-04T02:16:23.736Z,6.429
2023-04-04T02:17:23.585Z,6.440
2023-04-04T02:18:23.132Z,6.420
2023-04-04T02:19:23.247Z,6.409
2023-04-04T02:20:23.469Z,6.394
2023-04-04T02:21:23.683Z,6.379
2023-04-04T02:22:23.044Z,6.361
2023-04-04T02:23:22.783Z,6.333
2023-04-04T02:24:23.319Z,6.327
2023-04-04T02:25:23.523Z,6.289
2023-04-04T02:26:23.799Z,6.289
2023-04-04T02:27:22.908Z,6.300
2023-04-04T02:28:22.483Z,6.300
2023-04-04T02:29:23.396Z,6.295
2023-04-04T02:30:24.130Z,6.284
2023-04-04T02:31:23.463Z,6.284
2023-04-04T02:32:23.610Z,6.289
2023-04-04T02:33:23.065Z,6.280
2023-04-04T02:34:23.006Z,6.280
2023-04-04T02:35:23.090Z,6.280
2023-04-04T02:36:23.008Z,6.269
2023-04-04T02:37:22.835Z,6.25
2023-04-04T02:38:23.322Z,6.230
2023-04-04T02:39:23.259Z,6.199
2023-04-04T02:40:22.882Z,6.218
2023-04-04T02:41:23.609Z,6.195
2023-04-04T02:42:23.307Z,6.193
2023-04-04T02:43:23.180Z,6.184
2023-04-04T02:44:23.159Z,6.165
2023-04-04T02:45:22.878Z,6.149
2023-04-04T02:46:22.819Z,6.131
2023-04-04T02:47:22.927Z,6.105
2023-04-04T02:48:22.824Z,6.094
2023-04-04T02:49:22.710Z,6.094
2023-04-04T02:50:23.930Z,6.099
2023-04-04T02:51:22.862Z,6.054
2023-04-04T02:52:22.853Z,6.019
2023-04-04T02:53:23.472Z,6.005
2023-04-04T02:54:23.248Z,5.974
2023-04-04T02:55:23.495Z,5.960
2023-04-04T02:56:23.298Z,5.949
2023-04-04T02:57:22.604Z,5.934
2023-04-04T02:58:22.926Z,5.925
2023-04-04T02:59:22.952Z,5.925
2023-04-04T03:00:23.940Z,5.934
2023-04-04T03:01:23.804Z,5.894
2023-04-04T03:02:23.587Z,5.909
2023-04-04T03:03:23.082Z,5.900
2023-04-04T03:04:23.425Z,5.896
2023-04-04T03:05:23.025Z,5.893
2023-04-04T03:06:22.939Z,5.844
2023-04-04T03:07:22.774Z,5.816
2023-04-04T03:08:22.665Z,5.806
2023-04-04T03:09:23.019Z,5.765
2023-04-04T03:10:23.105Z,5.739
2023-04-04T03:11:22.871Z,5.731
2023-04-04T03:12:23.088Z,5.711
2023-04-04T03:13:22.597Z,5.693
2023-04-04T03:14:23.244Z,5.704
2023-04-04T03:15:23.336Z,5.655
2023-04-04T03:16:23.547Z,5.649
2023-04-04T03:17:23.773Z,5.649
2023-04-04T03:18:23.212Z,5.649
2023-04-04T03:19:22.810Z,5.659
2023-04-04T03:20:23.703Z,5.659
2023-04-04T03:21:23.201Z,5.643
2023-04-04T03:22:23.130Z,5.665
2023-04-04T03:23:22.976Z,5.655
2023-04-04T03:24:22.544Z,5.620
2023-04-04T03:25:23.069Z,5.579
2023-04-04T03:26:23.033Z,5.530
2023-04-04T03:27:22.901Z,5.505
2023-04-04T03:28:23.218Z,5.5
2023-04-04T03:29:22.788Z,5.489
2023-04-04T03:30:23.664Z,5.449
2023-04-04T03:31:23.267Z,5.460
2023-04-04T03:32:23.654Z,5.460
2023-04-04T03:33:22.951Z,5.449
2023-04-04T03:34:23.328Z,5.425
2023-04-04T03:35:22.724Z,5.425
2023-04-04T03:36:23.588Z,5.420
2023-04-04T03:37:23.375Z,5.400
2023-04-04T03:38:23.065Z,5.373
2023-04-04T03:39:22.836Z,5.374
2023-04-04T03:40:23.552Z,5.333
2023-04-04T03:41:23.040Z,5.304
2023-04-04T03:42:23.035Z,5.269
2023-04-04T03:43:23.075Z,5.219
2023-04-04T03:44:23.149Z,5.189
2023-04-04T03:45:23.417Z,5.171
2023-04-04T03:46:23.204Z,5.189
2023-04-04T03:47:23.330Z,5.159
2023-04-04T03:48:23.424Z,5.125
2023-04-04T03:49:23.280Z,5.114
2023-04-04T03:50:23.312Z,5.099
2023-04-04T03:51:23.824Z,5.085
2023-04-04T03:52:23.041Z,5.070
2023-04-04T03:53:27.912Z,5.079
2023-04-04T03:54:23.031Z,5.070
2023-04-04T03:55:23.003Z,5.054
2023-04-04T03:56:23.234Z,5.054
2023-04-04T03:57:23.287Z,5.030
2023-04-04T03:58:23.073Z,4.980
2023-04-04T03:59:22.737Z,4.985
2023-04-04T04:00:23.765Z,4.960
2023-04-04T04:01:31.361Z,4.940
2023-04-04T04:02:23.263Z,4.929
2023-04-04T04:03:31.376Z,4.909
2023-04-04T04:04:23.446Z,4.925
2023-04-04T04:05:23.442Z,4.920
2023-04-04T04:06:23.559Z,4.900
2023-04-04T04:07:23.187Z,4.889
2023-04-04T04:08:23.968Z,4.833
2023-04-04T04:09:22.969Z,4.815
2023-04-04T04:10:23.211Z,4.789
2023-04-04T04:11:23.569Z,4.784
2023-04-04T04:12:23.066Z,4.780
2023-04-04T04:13:22.584Z,4.789
2023-04-04T04:14:23.595Z,4.815
2023-04-04T04:15:23.915Z,4.789
2023-04-04T04:16:23.235Z,4.795
2023-04-04T04:17:23.237Z,4.815
2023-04-04T04:18:23.177Z,4.848
2023-04-04T04:19:23.168Z,4.842
2023-04-04T04:20:23.204Z,4.827
2023-04-04T04:21:23.104Z,4.828
2023-04-04T04:22:22.969Z,4.826
2023-04-04T04:23:22.821Z,4.816
2023-04-04T04:24:23.420Z,4.821
2023-04-04T04:25:23.773Z,4.804
2023-04-04T04:26:22.768Z,4.739
2023-04-04T04:27:23.833Z,4.724
2023-04-04T04:28:23.099Z,4.719
2023-04-04T04:29:23.878Z,4.764
2023-04-04T04:30:23.207Z,4.755
2023-04-04T04:31:23.302Z,4.744
2023-04-04T04:32:22.924Z,4.698
2023-04-04T04:33:22.807Z,4.689
2023-04-04T04:34:22.975Z,4.719
2023-04-04T04:35:23.060Z,4.735
2023-04-04T04:36:23.148Z,4.739
2023-04-04T04:37:23.458Z,4.704
2023-04-04T04:38:23.488Z,4.690
2023-04-04T04:39:23.329Z,4.715
2023-04-04T04:40:23.256Z,4.719
2023-04-04T04:41:23.421Z,4.730
2023-04-04T04:42:23.065Z,4.739
2023-04-04T04:43:22.953Z,4.730
2023-04-04T04:44:22.760Z,4.730
2023-04-04T04:45:23.275Z,4.714
2023-04-04T04:46:24.101Z,4.719
2023-04-04T04:47:24.089Z,4.710
2023-04-04T04:48:23.408Z,4.710
2023-04-04T04:49:23.765Z,4.695
2023-04-04T04:50:23.095Z,4.690
2023-04-04T04:51:23.081Z,4.649
2023-04-04T04:52:23.335Z,4.631
2023-04-04T04:53:23.182Z,4.599
2023-04-04T04:54:22.982Z,4.599
2023-04-04T04:55:23.340Z,4.590
2023-04-04T04:56:23.539Z,4.594
2023-04-04T04:57:23.828Z,4.594
2023-04-04T04:58:23.461Z,4.614
2023-04-04T04:59:23.317Z,4.610
2023-04-04T05:00:24.238Z,4.585
2023-04-04T05:01:23.458Z,4.574
2023-04-04T05:02:23.711Z,4.559
2023-04-04T05:03:23.275Z,4.550
2023-04-04T05:04:23.456Z,4.545
2023-04-04T05:05:23.367Z,4.530
2023-04-04T05:06:23.620Z,4.510
2023-04-04T05:07:23.170Z,4.5
2023-04-04T05:08:23.420Z,4.5
2023-04-04T05:09:22.841Z,4.485
2023-04-04T05:10:23.183Z,4.480
2023-04-04T05:11:23.440Z,4.494
2023-04-04T05:12:23.364Z,4.494
2023-04-04T05:13:23.593Z,4.454
2023-04-04T05:14:23.741Z,4.449
2023-04-04T05:15:24.119Z,4.449
2023-04-04T05:16:23.357Z,4.394
2023-04-04T05:17:23.747Z,4.389
2023-04-04T05:18:23.101Z,4.374
2023-04-04T05:19:23.021Z,4.339
2023-04-04T05:20:23.065Z,4.339
2023-04-04T05:22:26.311Z,4.327
2023-04-04T05:23:23.416Z,4.315
2023-04-04T05:24:23.160Z,4.304
2023-04-04T05:25:25.382Z,4.284
2023-04-04T05:26:23.397Z,4.264
2023-04-04T05:27:23.294Z,4.264
2023-04-04T05:28:23.102Z,4.255
2023-04-04T05:29:22.867Z,4.264
2023-04-04T05:30:23.193Z,4.260
2023-04-04T05:31:23.329Z,4.260
2023-04-04T05:32:23.905Z,4.260
2023-04-04T05:33:22.914Z,4.269
2023-04-04T05:34:22.963Z,4.301
2023-04-04T05:35:23.201Z,4.327
2023-04-04T05:36:23.374Z,4.327
2023-04-04T05:37:23.462Z,4.322
2023-04-04T05:38:23.430Z,4.353
2023-04-04T05:39:23.434Z,4.389
2023-04-04T05:40:23.580Z,4.383
2023-04-04T05:41:23.083Z,4.435
2023-04-04T05:42:23.342Z,4.418
2023-04-04T05:43:23.055Z,4.440
2023-04-04T05:44:23.229Z,4.462
2023-04-04T05:45:23.221Z,4.461
2023-04-04T05:46:23.341Z,4.480
2023-04-04T05:47:23.243Z,4.505
2023-04-04T05:48:23.508Z,4.514
2023-04-04T05:49:22.987Z,4.550
2023-04-04T05:50:23.399Z,4.574
2023-04-04T05:51:23.160Z,4.574
2023-04-04T05:52:23.366Z,4.574
2023-04-04T05:53:23.889Z,4.594
2023-04-04T05:54:23.093Z,4.614
2023-04-04T05:55:23.309Z,4.677
2023-04-04T05:56:23.139Z,4.735
2023-04-04T05:57:24.156Z,4.822
2023-04-04T05:58:22.929Z,4.954
2023-04-04T05:59:23.013Z,5.079
2023-04-04T06:00:23.710Z,5.197
2023-04-04T06:01:23.399Z,5.255
2023-04-04T06:02:23.688Z,5.344
2023-04-04T06:03:23.083Z,5.405
2023-04-04T06:04:23.300Z,5.434
2023-04-04T06:05:23.227Z,5.505
2023-04-04T06:06:23.273Z,5.554
2023-04-04T06:07:23.811Z,5.599
2023-04-04T06:08:23.553Z,5.729
2023-04-04T06:09:23.209Z,5.864
2023-04-04T06:10:23.251Z,6
2023-04-04T06:11:23.204Z,6.116
2023-04-04T06:12:23.403Z,6.239
2023-04-04T06:13:23.164Z,6.343
2023-04-04T06:14:23.231Z,6.449
2023-04-04T06:15:23.445Z,6.530
2023-04-04T06:16:28.672Z,6.655
2023-04-04T06:17:22.954Z,6.789
2023-04-04T06:18:23.052Z,6.934
2023-04-04T06:19:22.965Z,7.050
2023-04-04T06:20:23.041Z,7.164
2023-04-04T06:21:24.033Z,7.275
2023-04-04T06:22:28.245Z,7.339
2023-04-04T06:23:23.298Z,7.414
2023-04-04T06:24:23.204Z,7.414
2023-04-04T06:25:23.853Z,7.429
2023-04-04T06:26:23.849Z,7.405
2023-04-04T06:27:23.056Z,7.429
2023-04-04T06:28:31.194Z,7.414
2023-04-04T06:29:23.309Z,7.425
2023-04-04T06:30:23.885Z,7.408
2023-04-04T06:31:23.390Z,7.414
2023-04-04T06:32:31.740Z,7.420
2023-04-04T06:33:23.182Z,7.372
2023-04-04T06:34:37.507Z,7.355
2023-04-04T06:35:23.269Z,7.333
2023-04-04T06:36:23.000Z,7.355
2023-04-04T06:37:23.035Z,7.321
2023-04-04T06:38:22.928Z,7.327
2023-04-04T06:39:22.824Z,7.349
2023-04-04T06:40:22.764Z,7.361
2023-04-04T06:41:23.485Z,7.405
2023-04-04T06:42:23.596Z,7.400
2023-04-04T06:43:23.269Z,7.429
2023-04-04T06:44:23.533Z,7.425
2023-04-04T06:45:23.564Z,7.434
2023-04-04T06:46:23.212Z,7.440
2023-04-04T06:47:23.358Z,7.434
2023-04-04T06:48:23.327Z,7.454
2023-04-04T06:49:24.043Z,7.465
2023-04-04T06:50:23.298Z,7.489
2023-04-04T06:51:23.518Z,7.5
2023-04-04T06:52:23.104Z,7.559
2023-04-04T06:53:23.223Z,7.553
2023-04-04T06:54:23.404Z,7.610
2023-04-04T06:55:23.548Z,7.620
2023-04-04T06:56:42.428Z,7.657
2023-04-04T06:57:23.254Z,7.616
2023-04-04T06:58:23.405Z,7.655
2023-04-04T06:59:23.508Z,7.632
2023-04-04T07:00:24.605Z,7.583
2023-04-04T07:01:23.451Z,7.559
2023-04-04T07:02:23.743Z,7.594
2023-04-04T07:03:22.954Z,7.614
2023-04-04T07:04:23.127Z,7.655
2023-04-04T07:05:23.168Z,7.684
2023-04-04T07:06:25.894Z,7.693
2023-04-04T07:07:23.070Z,7.760
2023-04-04T07:08:23.168Z,7.769
2023-04-04T07:09:29.174Z,7.775
2023-04-04T07:10:23.567Z,7.739
2023-04-04T07:11:23.133Z,7.804
2023-04-04T07:12:23.309Z,7.861
2023-04-04T07:13:23.617Z,7.848
2023-04-04T07:14:23.688Z,7.949
2023-04-04T07:15:23.685Z,8.010
2023-04-04T07:16:23.654Z,7.994
2023-04-04T07:17:25.233Z,7.969
2023-04-04T07:18:23.670Z,7.985
2023-04-04T07:19:22.803Z,8.015
2023-04-04T07:20:23.246Z,8.050
2023-04-04T07:21:23.177Z,8.085
2023-04-04T07:22:23.204Z,8.079
2023-04-04T07:23:23.020Z,8.104
2023-04-04T07:24:23.175Z,8.100
2023-04-04T07:25:23.493Z,8.149
2023-04-04T07:26:23.457Z,8.300
2023-04-04T07:27:23.350Z,8.295
2023-04-04T07:28:22.876Z,8.220
2023-04-04T07:29:22.959Z,8.215
2023-04-04T07:30:23.276Z,8.234
2023-04-04T07:31:23.545Z,8.199
2023-04-04T07:32:24.637Z,8.180
2023-04-04T07:33:23.274Z,8.329
2023-04-04T07:34:23.492Z,8.545
2023-04-04T07:35:23.020Z,8.515
2023-04-04T07:36:23.157Z,8.664
2023-04-04T07:37:23.392Z,8.579
2023-04-04T07:38:23.415Z,8.550
2023-04-04T07:39:23.817Z,8.539
2023-04-04T07:40:23.615Z,8.585
2023-04-04T07:41:23.279Z,8.631
2023-04-04T07:42:23.669Z,8.682
2023-04-04T07:43:23.406Z,8.699
2023-04-04T07:44:23.365Z,8.796
2023-04-04T07:45:23.631Z,8.894
2023-04-04T07:46:23.691Z,8.854
2023-04-04T07:47:23.117Z,8.805
2023-04-04T07:48:23.248Z,8.871
2023-04-04T07:49:23.302Z,8.954
2023-04-04T07:50:23.772Z,8.989
2023-04-04T07:51:23.502Z,8.925
2023-04-04T07:52:23.436Z,8.925
2023-04-04T07:53:23.430Z,8.930
2023-04-04T07:54:23.187Z,8.984
2023-04-04T07:55:23.420Z,9.034
2023-04-04T07:56:23.233Z,9.074
2023-04-04T07:57:22.937Z,9.147
2023-04-04T07:58:22.437Z,9.244
2023-04-04T07:59:23.142Z,9.289
2023-04-04T08:00:24.055Z,9.328
2023-04-04T08:01:22.750Z,9.300
2023-04-04T08:02:23.202Z,9.354
2023-04-04T08:03:23.836Z,9.409
2023-04-04T08:04:23.365Z,9.444
2023-04-04T08:05:23.561Z,9.505
2023-04-04T08:06:23.454Z,9.520
2023-04-04T08:07:23.515Z,9.567
2023-04-04T08:08:23.320Z,9.620
2023-04-04T08:09:23.509Z,9.600
2023-04-04T08:10:23.771Z,9.545
2023-04-04T08:11:23.553Z,9.554
2023-04-04T08:12:23.763Z,9.583
2023-04-04T08:13:23.367Z,9.595
2023-04-04T08:14:23.660Z,9.704
2023-04-04T08:15:23.784Z,9.793
2023-04-04T08:16:23.100Z,9.836
2023-04-04T08:17:23.005Z,9.923
2023-04-04T08:18:23.565Z,9.994
2023-04-04T08:19:23.110Z,10.01
2023-04-04T08:20:23.045Z,10.10
2023-04-04T08:21:22.967Z,10.14
2023-04-04T08:22:22.813Z,10.14
2023-04-04T08:23:22.697Z,10.22
2023-04-04T08:24:23.136Z,10.46
2023-04-04T08:25:23.234Z,10.38
2023-04-04T08:26:23.217Z,10.27
2023-04-04T08:27:23.133Z,10.28
2023-04-04T08:28:22.947Z,10.38
2023-04-04T08:29:23.047Z,10.44
2023-04-04T08:30:23.197Z,10.39
2023-04-04T08:31:23.425Z,10.36
2023-04-04T08:32:22.979Z,10.36
2023-04-04T08:33:25.500Z,10.40
2023-04-04T08:34:23.430Z,10.72
2023-04-04T08:35:22.904Z,10.91
2023-04-04T08:36:23.122Z,11.05
2023-04-04T08:37:23.279Z,10.87
2023-04-04T08:38:23.336Z,10.77
2023-04-04T08:39:22.988Z,10.69
2023-04-04T08:40:23.320Z,10.71
2023-04-04T08:41:23.112Z,10.89
2023-04-04T08:42:23.093Z,10.98
2023-04-04T08:43:22.885Z,11
2023-04-04T08:44:23.202Z,10.81
2023-04-04T08:45:28.242Z,10.89
2023-04-04T08:46:24.047Z,11.12
2023-04-04T08:47:28.264Z,10.94
2023-04-04T08:48:23.192Z,10.85
2023-04-04T08:49:23.184Z,10.94
2023-04-04T08:50:22.981Z,10.96
2023-04-04T08:51:23.150Z,10.93
2023-04-04T08:52:23.011Z,11.03
2023-04-04T08:53:30.858Z,11.05
2023-04-04T08:54:22.723Z,11
2023-04-04T08:55:22.968Z,11.02
2023-04-04T08:56:23.083Z,11.08
2023-04-04T08:57:31.544Z,11.02
2023-04-04T08:58:23.812Z,10.93
2023-04-04T08:59:23.410Z,10.90
2023-04-04T09:00:24.528Z,10.95
2023-04-04T09:01:23.394Z,11.07
2023-04-04T09:02:23.683Z,11.19
2023-04-04T09:03:23.081Z,11.26
2023-04-04T09:04:23.362Z,11.28
2023-04-04T09:05:23.148Z,11.28
2023-04-04T09:06:23.220Z,11.37
2023-04-04T09:07:23.296Z,11.46
2023-04-04T09:08:23.285Z,11.50
2023-04-04T09:09:23.215Z,11.59
2023-04-04T09:10:23.632Z,11.87
2023-04-04T09:11:23.469Z,11.80
2023-04-04T09:12:23.381Z,11.74
2023-04-04T09:13:23.596Z,11.53
2023-04-04T09:14:23.820Z,11.42
2023-04-04T09:15:24.015Z,11.37
2023-04-04T09:16:23.121Z,11.32
2023-04-04T09:17:22.897Z,11.30
2023-04-04T09:18:22.880Z,11.29
2023-04-04T09:19:25.687Z,11.47
2023-04-04T09:20:23.833Z,11.39
2023-04-04T09:21:42.646Z,11.34
2023-04-04T09:22:23.235Z,11.26
2023-04-04T09:23:23.044Z,11.36
2023-04-04T09:24:23.372Z,11.43
2023-04-04T09:25:56.263Z,11.5
2023-04-04T09:26:35.250Z,11.53
2023-04-04T09:27:23.331Z,11.57
2023-04-04T09:28:23.114Z,11.59
2023-04-04T09:29:22.977Z,11.66
2023-04-04T09:30:23.040Z,11.71
2023-04-04T09:31:22.851Z,11.71
2023-04-04T09:32:23.167Z,11.80
2023-04-04T09:33:23.311Z,12
2023-04-04T09:34:23.441Z,12.20
2023-04-04T09:35:23.197Z,12.12
2023-04-04T09:36:23.432Z,12.04
2023-04-04T09:37:23.276Z,11.89
2023-04-04T09:38:23.178Z,11.74
2023-04-04T09:39:23.226Z,11.80
2023-04-04T09:40:23.389Z,11.85
2023-04-04T09:41:23.143Z,11.83
2023-04-04T09:42:22.913Z,11.85
2023-04-04T09:43:22.827Z,11.93
2023-04-04T09:44:23.044Z,12.00
2023-04-04T09:45:31.790Z,12.10
2023-04-04T09:46:22.947Z,12.31
2023-04-04T09:47:30.678Z,12.46
2023-04-04T09:48:23.463Z,12.45
2023-04-04T09:49:23.501Z,12.42
2023-04-04T09:50:23.651Z,12.89
2023-04-04T09:51:23.178Z,12.89
2023-04-04T09:52:23.817Z,12.52
2023-04-04T09:53:23.114Z,12.29
2023-04-04T09:54:29.615Z,12.22
2023-04-04T09:55:23.653Z,12.11
2023-04-04T09:56:23.739Z,12.08
2023-04-04T09:57:23.329Z,12.06
2023-04-04T09:58:23.152Z,12.10
2023-04-04T09:59:23.248Z,12.28
2023-04-04T10:00:24.063Z,12.33
2023-04-04T10:01:23.685Z,12.32
2023-04-04T10:02:23.002Z,12.26
2023-04-04T10:03:23.058Z,12.33
2023-04-04T10:04:23.525Z,12.40
2023-04-04T10:05:23.437Z,12.27
2023-04-04T10:06:23.123Z,12.13
2023-04-04T10:07:22.976Z,12.01
2023-04-04T10:08:23.072Z,12.18
2023-04-04T10:09:23.336Z,12.19
2023-04-04T10:10:23.128Z,12.08
2023-04-04T10:11:24.178Z,12.09
2023-04-04T10:12:22.885Z,12.13
2023-04-04T10:13:22.793Z,12.18
2023-04-04T10:14:23.205Z,12.47
2023-04-04T10:15:23.907Z,12.57
2023-04-04T10:16:23.352Z,12.48
2023-04-04T10:17:22.992Z,12.43
2023-04-04T10:18:22.813Z,12.64
2023-04-04T10:19:22.784Z,12.76
2023-04-04T10:20:23.140Z,12.68
2023-04-04T10:21:23.586Z,12.53
2023-04-04T10:22:23.807Z,12.48
2023-04-04T10:23:23.036Z,12.55
2023-04-04T10:24:23.422Z,12.78
2023-04-04T10:25:23.281Z,12.94
2023-04-04T10:26:23.159Z,12.93
2023-04-04T10:27:23.013Z,13.11
2023-04-04T10:28:23.165Z,13.34
2023-04-04T10:29:23.252Z,13.59
2023-04-04T10:30:23.660Z,13.31
2023-04-04T10:31:23.113Z,13
2023-04-04T10:32:23.748Z,12.91
2023-04-04T10:33:22.954Z,12.98
2023-04-04T10:34:23.172Z,12.92
2023-04-04T10:35:23.808Z,12.81
2023-04-04T10:36:23.248Z,12.56
2023-04-04T10:37:23.363Z,12.54
2023-04-04T10:38:23.773Z,12.53
2023-04-04T10:39:23.436Z,12.58
2023-04-04T10:40:23.777Z,12.53
2023-04-04T10:41:23.253Z,12.56
2023-04-04T10:42:23.261Z,12.52
2023-04-04T10:43:23.273Z,12.59
2023-04-04T10:44:23.541Z,12.73
2023-04-04T10:45:24.071Z,12.83
2023-04-04T10:46:23.088Z,12.92
2023-04-04T10:47:23.592Z,13.10
2023-04-04T10:48:23.499Z,13.02
2023-04-04T10:49:23.428Z,12.97
2023-04-04T10:50:23.615Z,13.10
2023-04-04T10:51:23.515Z,13.13
2023-04-04T10:52:23.041Z,13.15
2023-04-04T10:53:23.933Z,13.07
2023-04-04T10:54:23.279Z,13.06
2023-04-04T10:55:23.652Z,13.03
2023-04-04T10:56:23.220Z,13.12
2023-04-04T10:57:23.530Z,13
2023-04-04T10:58:23.094Z,13.08
2023-04-04T10:59:23.676Z,13.13
2023-04-04T11:00:24.020Z,13.01
2023-04-04T11:01:23.505Z,13.19
2023-04-04T11:02:24.080Z,13.15
2023-04-04T11:03:23.618Z,12.96
2023-04-04T11:04:23.747Z,12.98
2023-04-04T11:05:23.380Z,13.01
2023-04-04T11:06:23.725Z,12.97
2023-04-04T11:07:23.385Z,12.96
2023-04-04T11:08:23.498Z,12.96
2023-04-04T11:09:23.324Z,13.17
2023-04-04T11:10:28.657Z,13.22
2023-04-04T11:11:23.283Z,13.35
2023-04-04T11:12:28.124Z,13.67
2023-04-04T11:13:23.248Z,13.55
2023-04-04T11:14:23.337Z,13.84
2023-04-04T11:15:23.375Z,13.59
2023-04-04T11:16:31.319Z,13.55
2023-04-04T11:17:23.820Z,13.48
2023-04-04T11:18:33.068Z,13.53
2023-04-04T11:19:23.699Z,13.60
2023-04-04T11:20:23.533Z,13.63
2023-04-04T11:21:23.658Z,13.57
2023-04-04T11:22:23.528Z,13.60
2023-04-04T11:23:22.858Z,13.79
2023-04-04T11:24:23.503Z,13.89
2023-04-04T11:25:23.431Z,13.97
2023-04-04T11:26:23.006Z,14.06
2023-04-04T11:27:22.983Z,14.07
2023-04-04T11:28:23.255Z,14.03
2023-04-04T11:29:23.396Z,14.03
2023-04-04T11:30:24.097Z,14.02
2023-04-04T11:31:23.017Z,14.14
2023-04-04T11:32:37.826Z,14.32
2023-04-04T11:33:22.838Z,14.27
2023-04-04T11:34:23.826Z,14.27
2023-04-04T11:35:23.221Z,14.20
2023-04-04T11:36:22.943Z,14.10
2023-04-04T11:37:22.759Z,14.19
2023-04-04T11:38:22.753Z,14.20
2023-04-04T11:39:23.607Z,14.14
2023-04-04T11:40:41.818Z,13.97
2023-04-04T11:41:23.682Z,13.94
2023-04-04T11:42:23.733Z,14.05
2023-04-04T11:43:22.587Z,13.93
2023-04-04T11:44:23.859Z,14.03
2023-04-04T11:45:23.049Z,14.06
2023-04-04T11:46:23.168Z,13.98
2023-04-04T11:47:22.814Z,13.97
2023-04-04T11:48:23.195Z,14.09
2023-04-04T11:49:23.170Z,14.19
2023-04-04T11:50:23.197Z,14.55
2023-04-04T11:51:22.826Z,14.44
2023-04-04T11:52:23.481Z,14.31
2023-04-04T11:53:23.471Z,14.08
2023-04-04T11:54:23.489Z,13.96
2023-04-04T11:55:23.747Z,13.96
2023-04-04T11:56:23.055Z,13.97
2023-04-04T11:57:23.261Z,13.98
2023-04-04T11:58:23.168Z,14
2023-04-04T11:59:23.230Z,13.95
2023-04-04T12:00:24.340Z,13.90
2023-04-04T12:01:22.423Z,13.90
2023-04-04T12:02:23.732Z,13.98
2023-04-04T12:03:23.415Z,14.14
2023-04-04T12:04:23.087Z,14.21
2023-04-04T12:05:24.005Z,14.14
2023-04-04T12:06:23.398Z,14.22
2023-04-04T12:07:23.597Z,14.38
2023-04-04T12:08:22.602Z,14.52
2023-04-04T12:09:23.362Z,14.69
2023-04-04T12:10:23.458Z,14.69
2023-04-04T12:11:23.560Z,14.73
2023-04-04T12:12:23.146Z,14.75
2023-04-04T12:13:23.093Z,14.73
2023-04-04T12:14:23.434Z,14.75
2023-04-04T12:15:23.731Z,14.81
2023-04-04T12:16:23.721Z,14.93
2023-04-04T12:17:23.288Z,15.02
2023-04-04T12:18:23.715Z,15.20
2023-04-04T12:19:23.259Z,15.29
2023-04-04T12:20:23.467Z,15.39
2023-04-04T12:21:23.681Z,15.51
2023-04-04T12:22:23.482Z,15.53
2023-04-04T12:23:23.185Z,15.60
2023-04-04T12:24:23.778Z,15.64
2023-04-04T12:25:23.144Z,15.64
2023-04-04T12:26:23.177Z,15.60
2023-04-04T12:27:23.037Z,15.69
2023-04-04T12:28:23.289Z,15.90
2023-04-04T12:29:22.959Z,15.94
2023-04-04T12:31:26.290Z,15.79
2023-04-04T12:32:23.986Z,15.75
2023-04-04T12:33:23.502Z,15.81
2023-04-04T12:34:23.725Z,15.94
2023-04-04T12:35:24.106Z,16
2023-04-04T12:36:23.552Z,16.06
2023-04-04T12:37:23.540Z,16.30
2023-04-04T12:38:23.061Z,16.38
2023-04-04T12:39:23.170Z,16.45
2023-04-04T12:40:23.139Z,16.43
2023-04-04T12:41:23.922Z,16.33
2023-04-04T12:42:24.167Z,16.25
2023-04-04T12:43:23.823Z,16.20
2023-04-04T12:44:23.382Z,16.14
2023-04-04T12:45:23.951Z,16.15
2023-04-04T12:46:23.299Z,16.15
2023-04-04T12:47:23.746Z,16.15
2023-04-04T12:48:23.869Z,16.19
2023-04-04T12:49:23.407Z,16.24
2023-04-04T12:50:23.560Z,16.49
2023-04-04T12:51:23.176Z,16.51
2023-04-04T12:52:23.070Z,16.55
2023-04-04T12:54:22.964Z,16.63
2023-04-04T12:55:23.075Z,16.65
2023-04-04T12:56:23.464Z,16.72